Impacts TAF Board
For situational awareness. Not to be used for flight planning purposes.
IDs:

KSUA - Stuart/Witham Fld, FL, US

Issued at 1749 UTC 21 Sep 2021
Updated at 2105 UTC 21 Sep 2021
Potential Impact None Slight Moderate High
Time2048Z 21/22Z 21/23Z 22/00Z 22/01Z 22/02Z 22/03Z 22/04Z 22/05Z 22/06Z 22/07Z 22/08Z 22/09Z 22/10Z>>
Type OBS PRVL PRVL PRVL PRVL PRVL PRVL PRVL PRVL PRVL PRVL PRVL PRVL PRVL
VIS 10 >6 >6 >6 >6 >6 >6 >6 >6 >6 >6 >6 >6 >6
CIG 60 -- -- -- -- -- -- -- -- -- -- -- -- --
Cover OVC SCT SCT SCT SCT SCT SCT SCT SCT SCT SCT SCT SCT SCT
FltCat VFR VFR VFR VFR VFR VFR VFR VFR VFR VFR VFR VFR VFR VFR
WX -- -- -- -- -- -- -- -- -- -- -- -- -- --
WDir 90 130 130 130 130 130 130 130 130 130 130 130 130 130
WSpd 6 5 5 5 5 5 5 5 5 5 5 5 5 5
WGst -- -- -- -- -- -- -- -- -- -- -- -- -- --
Raw TAF
KSUA 211749Z 2118/2218 09006KT P6SM -RA SCT020 SCT050
  FM212000 10007KT 5SM -SHRA SCT035 BKN200
  FM212200 13005KT P6SM FEW035 SCT150 AMD NOT SKED


Raw METAR
KSUA 212048Z 09006KT 10SM FEW017 OVC060 27/23 A3003 RMK CEILOMETER OTS
KSUA 211948Z 08003KT 10SM FEW017 OVC060 27/23 A3004 RMK CEILOMETER OTS
KSUA 211848Z 08006KT 10SM -DZ FEW017 OVC060 26/24 A3006 RMK CEILOMETER OTS

METAR Board
Radar Display
Forecast Discussion
For situational awareness. Not to be used for flight planning purposes.